Hovedside
METAR-TAF:

METAR-TAF

Lufthavner :

Gibraltar lufthavn

Gibraltar, Gibraltar

breddegrad: 36-09N, lengdegrad: 005-21W, høyde over havet: 5 m

Gjeldene værobservasjon

Denne rapporten ble laget for 40 minutter siden, klokken 20:50 UTC
Vind 7 kt fra Nordøst
Temperatur 23°C
Luftfuktighet 94%
Trykk 1020 hPa
Sikt: 7000 m

METAR: LXGB 192050Z AUTO 05007KT 7000 // OVC015/// 23/22 Q1020

Tid: 23:30 (21:30 UTC)

Varsel

Denne rapporten ble laget for 4 timer og 52 minutter siden, klokken 16:38 UTC
Varsel gyldig fra 19. klokken 18 UTC til 19. klokken 22 UTC
Vind 5 kt fra Øst
Sikt 10 km eller mer
Få skyer i en høyde av 2000 ft
Midlertidig
fra 19. klokken 18 UTC til 19. klokken 22 UTC
Sikt: 7000 m
dis

TAF: LXGB 191638Z 1918/1922 10005KT 9999 FEW020 TEMPO 1918/1922 7000 HZ

Værobservasjoner og værvarsel for over 4000 flyplasser (METAR- og TAF-rapporter).

Tilgjengelige stasjoner er representert av de røde og gule prikkene på kartet.

Hold musepekeren over prikken for å se navnet på stasjonen.

Klikk så for å se værobservasjoner og -varsler.

For å forandre kartet kan du klikke på den grønne knappen med svart kryss for å zoome inn, på den grønne knappen med strek for å zoome ut, eller på de grønne pilene for å se tilstøtende kart.


METAR-TAF: